sensor_id;sensor_type;location;lat;lon;timestamp;pressure;altitude;pressure_sealevel;temperature;humidity
15971;BME280;59785;52.582;13.892;2022-12-05T00:00:52;101121.31;;;1.86;100.00
15971;BME280;59785;52.582;13.892;2022-12-05T00:03:18;101134.09;;;1.93;100.00
15971;BME280;59785;52.582;13.892;2022-12-05T00:05:45;101133.41;;;1.90;100.00
15971;BME280;59785;52.582;13.892;2022-12-05T00:08:11;101126.31;;;1.90;100.00
15971;BME280;59785;52.582;13.892;2022-12-05T00:10:38;101125.56;;;1.88;100.00
15971;BME280;59785;52.582;13.892;2022-12-05T00:13:05;101127.38;;;1.88;100.00
15971;BME280;59785;52.582;13.892;2022-12-05T00:15:35;101130.94;;;1.87;100.00
15971;BME280;59785;52.582;13.892;2022-12-05T00:18:01;101131.13;;;1.84;100.00
15971;BME280;59785;52.582;13.892;2022-12-05T00:20:27;101129.16;;;1.87;100.00
15971;BME280;59785;52.582;13.892;2022-12-05T00:22:53;101134.44;;;1.87;100.00
15971;BME280;59785;52.582;13.892;2022-12-05T00:25:20;101132.56;;;1.89;100.00
15971;BME280;59785;52.582;13.892;2022-12-05T00:27:46;101131.13;;;1.84;100.00
15971;BME280;59785;52.582;13.892;2022-12-05T00:30:12;101130.00;;;1.88;100.00
15971;BME280;59785;52.582;13.892;2022-12-05T01:19:23;101124.66;;;1.89;100.00
15971;BME280;59785;52.582;13.892;2022-12-05T01:21:49;101121.03;;;1.90;100.00
15971;BME280;59785;52.582;13.892;2022-12-05T01:24:17;101122.94;;;1.88;100.00
15971;BME280;59785;52.582;13.892;2022-12-05T01:26:43;101115.00;;;1.88;100.00
15971;BME280;59785;52.582;13.892;2022-12-05T01:29:11;101123.69;;;1.90;100.00
15971;BME280;59785;52.582;13.892;2022-12-05T01:31:39;101127.44;;;1.86;100.00
15971;BME280;59785;52.582;13.892;2022-12-05T01:34:07;101117.06;;;1.83;100.00
15971;BME280;59785;52.582;13.892;2022-12-05T01:36:34;101128.13;;;1.90;100.00
15971;BME280;59785;52.582;13.892;2022-12-05T01:39:00;101126.16;;;1.93;100.00
15971;BME280;59785;52.582;13.892;2022-12-05T01:41:30;101119.28;;;1.91;100.00
15971;BME280;59785;52.582;13.892;2022-12-05T01:46:30;101118.91;;;1.97;100.00
15971;BME280;59785;52.582;13.892;2022-12-05T01:49:02;101119.84;;;1.96;100.00
15971;BME280;59785;52.582;13.892;2022-12-05T01:51:29;101117.28;;;1.94;100.00
15971;BME280;59785;52.582;13.892;2022-12-05T01:53:55;101122.69;;;1.93;100.00
15971;BME280;59785;52.582;13.892;2022-12-05T01:56:21;101126.75;;;1.99;100.00
15971;BME280;59785;52.582;13.892;2022-12-05T01:58:48;101132.88;;;1.99;100.00
15971;BME280;59785;52.582;13.892;2022-12-05T02:01:16;101125.88;;;1.98;100.00
15971;BME280;59785;52.582;13.892;2022-12-05T02:03:43;101125.72;;;2.01;100.00
15971;BME280;59785;52.582;13.892;2022-12-05T02:06:10;101130.25;;;1.99;100.00
15971;BME280;59785;52.582;13.892;2022-12-05T02:08:38;101126.31;;;1.90;100.00
15971;BME280;59785;52.582;13.892;2022-12-05T02:11:06;101125.22;;;1.94;100.00
15971;BME280;59785;52.582;13.892;2022-12-05T02:16:27;101128.63;;;1.96;100.00
15971;BME280;59785;52.582;13.892;2022-12-05T02:19:12;101128.72;;;1.95;100.00
15971;BME280;59785;52.582;13.892;2022-12-05T02:30:21;101113.63;;;1.97;100.00
15971;BME280;59785;52.582;13.892;2022-12-05T02:33:07;101127.28;;;1.89;100.00
15971;BME280;59785;52.582;13.892;2022-12-05T02:35:45;101122.00;;;1.89;100.00
15971;BME280;59785;52.582;13.892;2022-12-05T02:41:48;101120.13;;;1.91;100.00
15971;BME280;59785;52.582;13.892;2022-12-05T02:44:31;101129.66;;;1.94;100.00
15971;BME280;59785;52.582;13.892;2022-12-05T02:47:00;101129.66;;;1.94;100.00
15971;BME280;59785;52.582;13.892;2022-12-05T02:49:31;101124.38;;;1.94;100.00
15971;BME280;59785;52.582;13.892;2022-12-05T02:51:59;101126.94;;;1.95;100.00
15971;BME280;59785;52.582;13.892;2022-12-05T02:54:34;101121.47;;;1.99;100.00
15971;BME280;59785;52.582;13.892;2022-12-05T02:57:03;101121.28;;;2.02;100.00
15971;BME280;59785;52.582;13.892;2022-12-05T02:59:30;101112.75;;;1.96;100.00
15971;BME280;59785;52.582;13.892;2022-12-05T03:01:56;101115.31;;;1.98;100.00
15971;BME280;59785;52.582;13.892;2022-12-05T03:04:23;101114.00;;;1.91;100.00
15971;BME280;59785;52.582;13.892;2022-12-05T03:06:57;101113.88;;;1.92;100.00
15971;BME280;59785;52.582;13.892;2022-12-05T03:09:47;101104.19;;;1.93;100.00
15971;BME280;59785;52.582;13.892;2022-12-05T03:12:23;101103.31;;;1.92;100.00
15971;BME280;59785;52.582;13.892;2022-12-05T03:15:03;101102.19;;;1.96;100.00
15971;BME280;59785;52.582;13.892;2022-12-05T03:17:34;101110.22;;;1.95;100.00
15971;BME280;59785;52.582;13.892;2022-12-05T03:20:13;101093.50;;;1.94;100.00
15971;BME280;59785;52.582;13.892;2022-12-05T03:22:48;101098.91;;;1.93;100.00
15971;BME280;59785;52.582;13.892;2022-12-05T03:25:16;101095.56;;;1.89;100.00
15971;BME280;59785;52.582;13.892;2022-12-05T03:27:49;101104.25;;;1.91;100.00
15971;BME280;59785;52.582;13.892;2022-12-05T03:30:20;101103.66;;;1.86;100.00
15971;BME280;59785;52.582;13.892;2022-12-05T03:33:12;101100.94;;;1.88;100.00
15971;BME280;59785;52.582;13.892;2022-12-05T03:36:02;101099.66;;;1.95;100.00
15971;BME280;59785;52.582;13.892;2022-12-05T03:38:39;101104.34;;;1.90;100.00
15971;BME280;59785;52.582;13.892;2022-12-05T03:41:56;101100.94;;;1.88;100.00
15971;BME280;59785;52.582;13.892;2022-12-05T03:44:33;101097.25;;;1.90;100.00
15971;BME280;59785;52.582;13.892;2022-12-05T03:50:09;101106.81;;;1.93;100.00
15971;BME280;59785;52.582;13.892;2022-12-05T03:52:45;101101.34;;;1.96;100.00
15971;BME280;59785;52.582;13.892;2022-12-05T03:55:36;101111.75;;;1.99;100.00
15971;BME280;59785;52.582;13.892;2022-12-05T03:58:07;101105.03;;;1.93;100.00
15971;BME280;59785;52.582;13.892;2022-12-05T04:00:39;101105.19;;;1.90;100.00
15971;BME280;59785;52.582;13.892;2022-12-05T04:03:11;101105.19;;;1.90;100.00
15971;BME280;59785;52.582;13.892;2022-12-05T04:05:48;101098.59;;;1.83;100.00
15971;BME280;59785;52.582;13.892;2022-12-05T04:10:46;101094.06;;;1.85;100.00
15971;BME280;59785;52.582;13.892;2022-12-05T04:13:45;101095.75;;;1.86;100.00
15971;BME280;59785;52.582;13.892;2022-12-05T04:16:22;101094.06;;;1.85;100.00
15971;BME280;59785;52.582;13.892;2022-12-05T04:19:46;101093.00;;;1.88;100.00
15971;BME280;59785;52.582;13.892;2022-12-05T04:22:33;101099.81;;;1.92;100.00
15971;BME280;59785;52.582;13.892;2022-12-05T04:25:01;101091.06;;;1.91;100.00
15971;BME280;59785;52.582;13.892;2022-12-05T04:30:35;101093.47;;;1.80;100.00
15971;BME280;59785;52.582;13.892;2022-12-05T04:33:07;101088.94;;;1.82;100.00
15971;BME280;59785;52.582;13.892;2022-12-05T04:35:40;101092.09;;;1.89;100.00
15971;BME280;59785;52.582;13.892;2022-12-05T04:40:52;101090.38;;;1.88;100.00
15971;BME280;59785;52.582;13.892;2022-12-05T04:43:20;101093.69;;;1.91;100.00
15971;BME280;59785;52.582;13.892;2022-12-05T04:45:49;101094.25;;;1.96;100.00
15971;BME280;59785;52.582;13.892;2022-12-05T04:48:16;101096.34;;;1.91;100.00
15971;BME280;59785;52.582;13.892;2022-12-05T04:50:45;101091.97;;;1.90;100.00
15971;BME280;59785;52.582;13.892;2022-12-05T04:53:13;101087.72;;;1.88;100.00
15971;BME280;59785;52.582;13.892;2022-12-05T04:55:45;101093.69;;;1.91;100.00
15971;BME280;59785;52.582;13.892;2022-12-05T04:58:20;101090.84;;;1.94;100.00
15971;BME280;59785;52.582;13.892;2022-12-05T05:00:56;101099.16;;;1.88;100.00
15971;BME280;59785;52.582;13.892;2022-12-05T05:03:26;101097.09;;;1.93;100.00
15971;BME280;59785;52.582;13.892;2022-12-05T05:05:54;101089.94;;;1.95;100.00
15971;BME280;59785;52.582;13.892;2022-12-05T05:08:25;101097.78;;;1.97;100.00
15971;BME280;59785;52.582;13.892;2022-12-05T05:11:03;101092.28;;;2.00;100.00
15971;BME280;59785;52.582;13.892;2022-12-05T05:13:29;101090.00;;;1.94;100.00
15971;BME280;59785;52.582;13.892;2022-12-05T05:15:55;101088.41;;;1.91;100.00
15971;BME280;59785;52.582;13.892;2022-12-05T05:18:21;101091.91;;;1.92;100.00
15971;BME280;59785;52.582;13.892;2022-12-05T05:20:47;101088.41;;;1.91;100.00
15971;BME280;59785;52.582;13.892;2022-12-05T05:23:14;101088.31;;;1.93;100.00
15971;BME280;59785;52.582;13.892;2022-12-05T05:25:40;101092.66;;;1.94;100.00
15971;BME280;59785;52.582;13.892;2022-12-05T05:28:06;101090.84;;;1.94;100.00
15971;BME280;59785;52.582;13.892;2022-12-05T05:30:32;101083.22;;;1.90;100.00
15971;BME280;59785;52.582;13.892;2022-12-05T05:32:59;101090.69;;;1.97;100.00
15971;BME280;59785;52.582;13.892;2022-12-05T05:35:25;101087.97;;;1.99;100.00
15971;BME280;59785;52.582;13.892;2022-12-05T05:37:51;101092.41;;;1.99;100.00
15971;BME280;59785;52.582;13.892;2022-12-05T05:40:17;101093.50;;;1.94;100.00
15971;BME280;59785;52.582;13.892;2022-12-05T05:42:45;101092.50;;;1.97;100.00
15971;BME280;59785;52.582;13.892;2022-12-05T05:45:13;101090.69;;;1.97;100.00
15971;BME280;59785;52.582;13.892;2022-12-05T05:47:40;101096.72;;;2.00;100.00
15971;BME280;59785;52.582;13.892;2022-12-05T05:50:07;101097.56;;;2.00;100.00
15971;BME280;59785;52.582;13.892;2022-12-05T05:52:36;101096.66;;;2.01;100.00
15971;BME280;59785;52.582;13.892;2022-12-05T05:55:04;101092.66;;;1.94;100.00
15971;BME280;59785;52.582;13.892;2022-12-05T05:57:31;101091.81;;;1.93;100.00
15971;BME280;59785;52.582;13.892;2022-12-05T05:59:57;101094.94;;;2.00;100.00
15971;BME280;59785;52.582;13.892;2022-12-05T06:02:23;101094.19;;;1.98;100.00
15971;BME280;59785;52.582;13.892;2022-12-05T06:04:50;101089.94;;;1.95;100.00
15971;BME280;59785;52.582;13.892;2022-12-05T06:07:16;101095.97;;;1.97;100.00
15971;BME280;59785;52.582;13.892;2022-12-05T06:09:42;101096.19;;;2.09;100.00
15971;BME280;59785;52.582;13.892;2022-12-05T06:12:08;101098.25;;;2.04;100.00
15971;BME280;59785;52.582;13.892;2022-12-05T06:14:34;101098.09;;;2.07;100.00
15971;BME280;59785;52.582;13.892;2022-12-05T06:17:00;101097.69;;;1.99;100.00
15971;BME280;59785;52.582;13.892;2022-12-05T06:19:26;101104.50;;;2.03;100.00
15971;BME280;59785;52.582;13.892;2022-12-05T06:21:53;101109.03;;;2.01;100.00
15971;BME280;59785;52.582;13.892;2022-12-05T06:24:19;101104.00;;;1.96;100.00
15971;BME280;59785;52.582;13.892;2022-12-05T06:26:45;101107.13;;;2.03;100.00
15971;BME280;59785;52.582;13.892;2022-12-05T06:29:11;101101.94;;;2.01;100.00
15971;BME280;59785;52.582;13.892;2022-12-05T06:31:37;101114.38;;;1.99;100.00
15971;BME280;59785;52.582;13.892;2022-12-05T06:34:04;101107.91;;;2.05;100.00
15971;BME280;59785;52.582;13.892;2022-12-05T06:36:30;101119.78;;;2.12;100.00
15971;BME280;59785;52.582;13.892;2022-12-05T06:38:57;101119.31;;;2.05;100.00
15971;BME280;59785;52.582;13.892;2022-12-05T06:41:23;101110.13;;;1.96;100.00
15971;BME280;59785;52.582;13.892;2022-12-05T06:43:57;101112.31;;;2.04;100.00
15971;BME280;59785;52.582;13.892;2022-12-05T06:46:27;101110.63;;;2.03;100.00
15971;BME280;59785;52.582;13.892;2022-12-05T06:48:57;101116.00;;;2.02;100.00
15971;BME280;59785;52.582;13.892;2022-12-05T06:51:23;101109.13;;;2.13;100.00
15971;BME280;59785;52.582;13.892;2022-12-05T06:53:50;101120.47;;;2.15;100.00
15971;BME280;59785;52.582;13.892;2022-12-05T06:56:18;101118.78;;;2.14;100.00
15971;BME280;59785;52.582;13.892;2022-12-05T06:58:46;101129.28;;;2.16;100.00
15971;BME280;59785;52.582;13.892;2022-12-05T07:01:15;101128.09;;;2.06;100.00
15971;BME280;59785;52.582;13.892;2022-12-05T07:04:00;101130.16;;;2.01;100.00
15971;BME280;59785;52.582;13.892;2022-12-05T07:06:27;101130.31;;;1.97;100.00
15971;BME280;59785;52.582;13.892;2022-12-05T07:08:53;101132.88;;;1.99;100.00
15971;BME280;59785;52.582;13.892;2022-12-05T07:11:20;101132.97;;;1.97;100.00
15971;BME280;59785;52.582;13.892;2022-12-05T07:13:46;101130.50;;;1.94;100.00
15971;BME280;59785;52.582;13.892;2022-12-05T07:16:12;101134.94;;;1.94;100.00
15971;BME280;59785;52.582;13.892;2022-12-05T07:18:38;101130.59;;;1.93;100.00
15971;BME280;59785;52.582;13.892;2022-12-05T07:21:10;101128.13;;;1.90;100.00
15971;BME280;59785;52.582;13.892;2022-12-05T07:23:39;101133.13;;;1.94;100.00
15971;BME280;59785;52.582;13.892;2022-12-05T07:26:07;101130.50;;;1.94;100.00
15971;BME280;59785;52.582;13.892;2022-12-05T07:28:34;101134.09;;;1.93;100.00
15971;BME280;59785;52.582;13.892;2022-12-05T07:31:00;101146.69;;;1.88;100.00
15971;BME280;59785;52.582;13.892;2022-12-05T07:33:27;101149.34;;;1.88;100.00
15971;BME280;59785;52.582;13.892;2022-12-05T07:35:58;101147.31;;;1.93;100.00
15971;BME280;59785;52.582;13.892;2022-12-05T07:38:25;101147.66;;;1.87;100.00
15971;BME280;59785;52.582;13.892;2022-12-05T07:40:51;101152.59;;;1.93;100.00
15971;BME280;59785;52.582;13.892;2022-12-05T07:43:17;101138.94;;;2.01;100.00
15971;BME280;59785;52.582;13.892;2022-12-05T07:45:43;101140.22;;;1.94;100.00
15971;BME280;59785;52.582;13.892;2022-12-05T07:48:09;101142.50;;;2.00;100.00
15971;BME280;59785;52.582;13.892;2022-12-05T07:50:43;101148.22;;;2.08;100.00
15971;BME280;59785;52.582;13.892;2022-12-05T07:53:09;101140.81;;;1.99;100.00
15971;BME280;59785;52.582;13.892;2022-12-05T07:55:36;101144.81;;;1.90;100.00
15971;BME280;59785;52.582;13.892;2022-12-05T07:58:02;101138.63;;;1.91;100.00
15971;BME280;59785;52.582;13.892;2022-12-05T08:00:28;101149.94;;;1.93;100.00
15971;BME280;59785;52.582;13.892;2022-12-05T08:02:54;101144.47;;;1.96;100.00
15971;BME280;59785;52.582;13.892;2022-12-05T08:05:20;101140.22;;;1.94;100.00
15971;BME280;59785;52.582;13.892;2022-12-05T08:07:47;101149.44;;;2.03;100.00
15971;BME280;59785;52.582;13.892;2022-12-05T08:10:13;101155.56;;;2.03;100.00
15971;BME280;59785;52.582;13.892;2022-12-05T08:12:39;101154.34;;;2.09;100.00
15971;BME280;59785;52.582;13.892;2022-12-05T08:15:06;101146.66;;;2.04;100.00
15971;BME280;59785;52.582;13.892;2022-12-05T08:17:32;101155.34;;;2.06;100.00
15971;BME280;59785;52.582;13.892;2022-12-05T08:19:58;101154.78;;;2.01;100.00
15971;BME280;59785;52.582;13.892;2022-12-05T08:22:25;101153.94;;;2.01;100.00
15971;BME280;59785;52.582;13.892;2022-12-05T08:24:51;101153.28;;;1.97;100.00
15971;BME280;59785;52.582;13.892;2022-12-05T08:27:21;101157.25;;;2.04;100.00
15971;BME280;59785;52.582;13.892;2022-12-05T08:29:47;101154.59;;;2.04;100.00
15971;BME280;59785;52.582;13.892;2022-12-05T08:32:13;101158.78;;;2.08;100.00
15971;BME280;59785;52.582;13.892;2022-12-05T08:34:39;101160.41;;;2.11;100.00
15971;BME280;59785;52.582;13.892;2022-12-05T08:37:05;101160.31;;;2.12;100.00
15971;BME280;59785;52.582;13.892;2022-12-05T08:39:32;101155.88;;;2.13;100.00
15971;BME280;59785;52.582;13.892;2022-12-05T08:42:03;101169.16;;;2.11;100.00
15971;BME280;59785;52.582;13.892;2022-12-05T08:44:29;101161.16;;;2.13;100.00
15971;BME280;59785;52.582;13.892;2022-12-05T08:46:55;101159.44;;;2.12;100.00
15971;BME280;59785;52.582;13.892;2022-12-05T08:49:21;101154.91;;;2.14;100.00
15971;BME280;59785;52.582;13.892;2022-12-05T08:51:47;101151.94;;;2.20;100.00
15971;BME280;59785;52.582;13.892;2022-12-05T08:54:14;101162.41;;;2.22;100.00
15971;BME280;59785;52.582;13.892;2022-12-05T08:56:40;101147.19;;;2.11;100.00
15971;BME280;59785;52.582;13.892;2022-12-05T08:59:06;101156.56;;;2.16;100.00
15971;BME280;59785;52.582;13.892;2022-12-05T09:01:33;101150.59;;;2.13;100.00
15971;BME280;59785;52.582;13.892;2022-12-05T09:04:04;101158.44;;;2.14;100.00
15971;BME280;59785;52.582;13.892;2022-12-05T09:06:31;101145.69;;;2.21;100.00
15971;BME280;59785;52.582;13.892;2022-12-05T09:09:02;101150.22;;;2.19;100.00
15971;BME280;59785;52.582;13.892;2022-12-05T09:11:32;101154.66;;;2.19;100.00
15971;BME280;59785;52.582;13.892;2022-12-05T09:14:00;101150.31;;;2.17;100.00
15971;BME280;59785;52.582;13.892;2022-12-05T09:16:29;101158.16;;;2.19;100.00
15971;BME280;59785;52.582;13.892;2022-12-05T09:19:04;101150.91;;;2.23;100.00
15971;BME280;59785;52.582;13.892;2022-12-05T09:21:30;101155.16;;;2.25;100.00
15971;BME280;59785;52.582;13.892;2022-12-05T09:23:57;101145.53;;;2.24;100.00
15971;BME280;59785;52.582;13.892;2022-12-05T09:26:25;101142.69;;;2.27;100.00
15971;BME280;59785;52.582;13.892;2022-12-05T09:28:52;101139.69;;;2.33;100.00
15971;BME280;59785;52.582;13.892;2022-12-05T09:31:21;101148.28;;;2.37;100.00
15971;BME280;59785;52.582;13.892;2022-12-05T09:33:49;101145.75;;;2.35;100.00
15971;BME280;59785;52.582;13.892;2022-12-05T09:36:18;101143.75;;;2.39;100.00
15971;BME280;59785;52.582;13.892;2022-12-05T09:38:45;101141.41;;;2.49;100.00
15971;BME280;59785;52.582;13.892;2022-12-05T09:41:21;101137.84;;;2.50;100.00
15971;BME280;59785;52.582;13.892;2022-12-05T09:45:07;101133.84;;;2.43;100.00
15971;BME280;59785;52.582;13.892;2022-12-05T09:49:57;101131.69;;;2.49;100.00
15971;BME280;59785;52.582;13.892;2022-12-05T09:52:31;101134.72;;;2.58;100.00
15971;BME280;59785;52.582;13.892;2022-12-05T09:55:14;101129.59;;;2.40;100.00
15971;BME280;59785;52.582;13.892;2022-12-05T09:57:44;101136.88;;;2.51;100.00
15971;BME280;59785;52.582;13.892;2022-12-05T10:00:13;101132.94;;;2.58;100.00
15971;BME280;59785;52.582;13.892;2022-12-05T10:02:49;101139.19;;;2.57;100.00
15971;BME280;59785;52.582;13.892;2022-12-05T10:05:24;101137.84;;;2.50;100.00
15971;BME280;59785;52.582;13.892;2022-12-05T10:08:12;101126.41;;;2.49;100.00
15971;BME280;59785;52.582;13.892;2022-12-05T10:10:56;101125.84;;;2.59;100.00
15971;BME280;59785;52.582;13.892;2022-12-05T10:16:02;101124.16;;;2.72;100.00
15971;BME280;59785;52.582;13.892;2022-12-05T10:21:43;101122.53;;;2.84;100.00
15971;BME280;59785;52.582;13.892;2022-12-05T10:24:14;101119.91;;;2.98;100.00
15971;BME280;59785;52.582;13.892;2022-12-05T10:26:57;101120.28;;;3.06;100.00
15971;BME280;59785;52.582;13.892;2022-12-05T10:29:37;101117.72;;;3.05;100.00
15971;BME280;59785;52.582;13.892;2022-12-05T10:32:16;101119.31;;;3.07;100.00
15971;BME280;59785;52.582;13.892;2022-12-05T10:34:44;101110.44;;;3.08;100.00
15971;BME280;59785;52.582;13.892;2022-12-05T10:37:21;101113.34;;;3.18;100.00
15971;BME280;59785;52.582;13.892;2022-12-05T10:39:49;101112.34;;;3.06;100.00
15971;BME280;59785;52.582;13.892;2022-12-05T10:42:20;101108.38;;;3.13;100.00
15971;BME280;59785;52.582;13.892;2022-12-05T10:44:47;101098.53;;;3.15;100.00
15971;BME280;59785;52.582;13.892;2022-12-05T10:47:13;101098.13;;;3.07;100.00
15971;BME280;59785;52.582;13.892;2022-12-05T10:49:39;101100.31;;;3.15;100.00
15971;BME280;59785;52.582;13.892;2022-12-05T10:52:05;101105.59;;;3.15;100.00
15971;BME280;59785;52.582;13.892;2022-12-05T10:54:38;101099.19;;;3.19;100.00
15971;BME280;59785;52.582;13.892;2022-12-05T10:57:36;101096.81;;;3.29;100.00
15971;BME280;59785;52.582;13.892;2022-12-05T11:00:13;101098.59;;;3.28;100.00
15971;BME280;59785;52.582;13.892;2022-12-05T11:02:41;101096.75;;;3.43;100.00
15971;BME280;59785;52.582;13.892;2022-12-05T11:05:08;101095.16;;;3.41;100.00
15971;BME280;59785;52.582;13.892;2022-12-05T11:07:37;101091.19;;;3.33;100.00
15971;BME280;59785;52.582;13.892;2022-12-05T11:10:21;101083.03;;;3.51;100.00
15971;BME280;59785;52.582;13.892;2022-12-05T11:12:54;101088.56;;;3.61;100.00
15971;BME280;59785;52.582;13.892;2022-12-05T11:15:24;101084.31;;;3.58;100.00
15971;BME280;59785;52.582;13.892;2022-12-05T11:17:53;101084.69;;;3.52;100.00
15971;BME280;59785;52.582;13.892;2022-12-05T11:22:53;101074.50;;;3.46;100.00
15971;BME280;59785;52.582;13.892;2022-12-05T11:25:31;101076.88;;;3.50;100.00
15971;BME280;59785;52.582;13.892;2022-12-05T11:28:00;101076.16;;;3.61;100.00
15971;BME280;59785;52.582;13.892;2022-12-05T11:31:01;101086.91;;;3.72;100.00
15971;BME280;59785;52.582;13.892;2022-12-05T11:33:31;101078.66;;;3.77;100.00
15971;BME280;59785;52.582;13.892;2022-12-05T11:36:03;101079.97;;;3.57;100.00
15971;BME280;59785;52.582;13.892;2022-12-05T11:38:31;101078.56;;;3.51;100.00
15971;BME280;59785;52.582;13.892;2022-12-05T11:41:16;101083.91;;;3.64;100.00
15971;BME280;59785;52.582;13.892;2022-12-05T11:44:04;101072.41;;;3.78;100.00
15971;BME280;59785;52.582;13.892;2022-12-05T11:49:44;101076.63;;;3.68;100.00
15971;BME280;59785;52.582;13.892;2022-12-05T11:53:05;101076.06;;;3.63;100.00
15971;BME280;59785;52.582;13.892;2022-12-05T11:55:34;101074.16;;;3.38;100.00
15971;BME280;59785;52.582;13.892;2022-12-05T11:58:29;101068.78;;;3.39;100.00
15971;BME280;59785;52.582;13.892;2022-12-05T12:03:35;101074.72;;;3.70;100.00
15971;BME280;59785;52.582;13.892;2022-12-05T12:06:22;101074.41;;;3.74;100.00
15971;BME280;59785;52.582;13.892;2022-12-05T12:11:53;101069.00;;;3.76;100.00
15971;BME280;59785;52.582;13.892;2022-12-05T12:14:31;101066.88;;;3.81;100.00
15971;BME280;59785;52.582;13.892;2022-12-05T12:17:25;101067.06;;;3.65;100.00
15971;BME280;59785;52.582;13.892;2022-12-05T12:20:06;101070.44;;;3.67;100.00
15971;BME280;59785;52.582;13.892;2022-12-05T12:22:47;101062.81;;;3.63;100.00
15971;BME280;59785;52.582;13.892;2022-12-05T12:25:51;101062.09;;;3.46;100.00
15971;BME280;59785;52.582;13.892;2022-12-05T12:28:35;101057.63;;;3.34;100.00
15971;BME280;59785;52.582;13.892;2022-12-05T12:36:37;101071.19;;;3.69;100.00
15971;BME280;59785;52.582;13.892;2022-12-05T12:42:05;101055.94;;;3.60;100.00
15971;BME280;59785;52.582;13.892;2022-12-05T12:45:05;101061.97;;;3.62;100.00
15971;BME280;59785;52.582;13.892;2022-12-05T12:50:28;101055.34;;;3.82;100.00
15971;BME280;59785;52.582;13.892;2022-12-05T12:55:45;101047.00;;;4.01;100.00
15971;BME280;59785;52.582;13.892;2022-12-05T12:58:42;101047.09;;;4.12;100.00
15971;BME280;59785;52.582;13.892;2022-12-05T13:01:20;101044.81;;;4.21;100.00
15971;BME280;59785;52.582;13.892;2022-12-05T13:03:56;101040.97;;;4.25;100.00
15971;BME280;59785;52.582;13.892;2022-12-05T13:06:40;101040.03;;;4.13;100.00
15971;BME280;59785;52.582;13.892;2022-12-05T13:09:26;101023.38;;;4.11;100.00
15971;BME280;59785;52.582;13.892;2022-12-05T13:11:57;101035.88;;;4.22;100.00
15971;BME280;59785;52.582;13.892;2022-12-05T13:14:27;101030.88;;;4.30;100.00
15971;BME280;59785;52.582;13.892;2022-12-05T13:16:55;101037.81;;;4.32;100.00
15971;BME280;59785;52.582;13.892;2022-12-05T13:19:44;101046.28;;;4.38;100.00
15971;BME280;59785;52.582;13.892;2022-12-05T13:22:12;101025.78;;;4.40;100.00
15971;BME280;59785;52.582;13.892;2022-12-05T13:24:38;101041.63;;;4.28;100.00
15971;BME280;59785;52.582;13.892;2022-12-05T13:27:08;101042.34;;;4.18;100.00
15971;BME280;59785;52.582;13.892;2022-12-05T13:29:42;101040.00;;;4.00;100.00
15971;BME280;59785;52.582;13.892;2022-12-05T13:32:34;101043.28;;;4.04;100.00
15971;BME280;59785;52.582;13.892;2022-12-05T13:35:08;101041.50;;;4.17;100.00
15971;BME280;59785;52.582;13.892;2022-12-05T13:37:46;101038.44;;;4.23;100.00
15971;BME280;59785;52.582;13.892;2022-12-05T13:40:33;101042.91;;;4.23;100.00
15971;BME280;59785;52.582;13.892;2022-12-05T13:43:21;101040.22;;;4.10;100.00
15971;BME280;59785;52.582;13.892;2022-12-05T13:45:59;101034.63;;;4.14;100.00
15971;BME280;59785;52.582;13.892;2022-12-05T13:48:29;101029.94;;;4.18;100.00
15971;BME280;59785;52.582;13.892;2022-12-05T13:51:05;101030.47;;;4.23;100.00
15971;BME280;59785;52.582;13.892;2022-12-05T13:53:57;101034.59;;;4.27;100.00
15971;BME280;59785;52.582;13.892;2022-12-05T13:56:29;101036.09;;;4.31;100.00
15971;BME280;59785;52.582;13.892;2022-12-05T13:59:10;101032.69;;;4.29;100.00
15971;BME280;59785;52.582;13.892;2022-12-05T14:01:42;101035.25;;;4.31;100.00
15971;BME280;59785;52.582;13.892;2022-12-05T14:04:44;101036.09;;;4.31;100.00
15971;BME280;59785;52.582;13.892;2022-12-05T14:07:37;101037.25;;;4.27;100.00
15971;BME280;59785;52.582;13.892;2022-12-05T14:10:04;101044.38;;;4.27;100.00
15971;BME280;59785;52.582;13.892;2022-12-05T14:15:36;101041.72;;;4.27;100.00
15971;BME280;59785;52.582;13.892;2022-12-05T14:23:36;101046.06;;;4.28;100.00
15971;BME280;59785;52.582;13.892;2022-12-05T14:32:12;101049.88;;;4.24;100.00
15971;BME280;59785;52.582;13.892;2022-12-05T14:34:55;101047.03;;;4.27;100.00
15971;BME280;59785;52.582;13.892;2022-12-05T14:37:29;101053.28;;;4.26;100.00
15971;BME280;59785;52.582;13.892;2022-12-05T14:39:58;101049.22;;;4.20;100.00
15971;BME280;59785;52.582;13.892;2022-12-05T14:42:31;101036.75;;;4.22;100.00
15971;BME280;59785;52.582;13.892;2022-12-05T14:45:16;101043.72;;;4.23;100.00
15971;BME280;59785;52.582;13.892;2022-12-05T14:47:54;101044.81;;;4.21;100.00
15971;BME280;59785;52.582;13.892;2022-12-05T14:50:41;101039.06;;;4.27;100.00
15971;BME280;59785;52.582;13.892;2022-12-05T14:53:25;101033.44;;;4.31;100.00
15971;BME280;59785;52.582;13.892;2022-12-05T14:58:45;101039.50;;;4.33;100.00
15971;BME280;59785;52.582;13.892;2022-12-05T15:01:21;101039.63;;;4.32;100.00
15971;BME280;59785;52.582;13.892;2022-12-05T15:06:44;101042.47;;;4.29;100.00
15971;BME280;59785;52.582;13.892;2022-12-05T15:09:43;101037.38;;;4.26;100.00
15971;BME280;59785;52.582;13.892;2022-12-05T15:12:22;101038.75;;;4.31;100.00
15971;BME280;59785;52.582;13.892;2022-12-05T15:14:54;101032.50;;;4.32;100.00
15971;BME280;59785;52.582;13.892;2022-12-05T15:17:26;101039.06;;;4.27;100.00